Time;durP1;ratioP1;P1;durP2;ratioP2;P2;SDS_P1;SDS_P2;PMS_P1;PMS_P2;Temp;Humidity;BMP_temperature;BMP_pressure;BME280_temperature;BME280_humidity;BME280_pressure;Samples;Min_cycle;Max_cycle;Signal;HPM_P1;HPM_P2
2021/06/01 00:01:47;;;;;;;12.15;8.32;;;18.70;82.20;;;;;;5014134;28;20089;-80
2021/06/01 00:04:14;;;;;;;12.23;7.68;;;18.60;82.40;;;;;;5013033;28;20054;-80
2021/06/01 00:06:41;;;;;;;10.82;8.02;;;18.60;82.30;;;;;;5014105;28;20108;-80
2021/06/01 00:09:09;;;;;;;11.00;8.02;;;18.50;82.20;;;;;;5013567;28;20382;-79
2021/06/01 00:11:35;;;;;;;11.80;8.43;;;18.40;82.30;;;;;;5011535;28;20409;-79
2021/06/01 00:14:04;;;;;;;10.32;7.90;;;18.40;82.30;;;;;;5014260;28;20083;-80
2021/06/01 00:16:30;;;;;;;11.90;8.20;;;18.30;82.50;;;;;;5013540;28;20045;-79
2021/06/01 00:18:55;;;;;;;11.70;8.10;;;18.30;82.70;;;;;;5013718;28;20045;-79
2021/06/01 00:21:23;;;;;;;11.90;8.30;;;18.30;82.60;;;;;;5013618;28;20562;-79
2021/06/01 00:23:51;;;;;;;11.18;7.97;;;18.20;82.30;;;;;;5013171;28;20073;-80
2021/06/01 00:26:17;;;;;;;10.90;8.23;;;18.10;82.20;;;;;;5013799;28;20107;-80
2021/06/01 00:28:42;;;;;;;9.88;8.20;;;18.10;82.30;;;;;;5013819;28;20046;-79
2021/06/01 00:31:09;;;;;;;11.18;7.80;;;18.00;82.30;;;;;;5010992;28;20053;-81
2021/06/01 00:33:35;;;;;;;11.75;8.60;;;18.00;82.70;;;;;;4993798;28;20046;-80
2021/06/01 00:36:01;;;;;;;10.23;8.18;;;17.90;82.60;;;;;;4993205;28;20050;-80
2021/06/01 00:38:27;;;;;;;10.07;7.80;;;17.90;82.90;;;;;;4992771;28;20069;-80
2021/06/01 00:40:53;;;;;;;10.70;8.50;;;17.80;82.80;;;;;;4993261;28;20141;-80
2021/06/01 00:43:19;;;;;;;12.05;8.13;;;17.80;82.90;;;;;;4993522;28;20058;-80
2021/06/01 00:45:45;;;;;;;11.98;8.13;;;17.80;82.90;;;;;;4992774;28;20057;-80
2021/06/01 00:48:11;;;;;;;11.52;8.05;;;17.70;83.20;;;;;;4993535;28;20046;-80
2021/06/01 00:50:37;;;;;;;11.15;8.07;;;17.60;82.90;;;;;;4993151;28;20053;-80
2021/06/01 00:53:05;;;;;;;12.25;8.15;;;17.60;82.60;;;;;;4992549;28;20081;-80
2021/06/01 00:55:30;;;;;;;11.35;8.48;;;17.60;82.90;;;;;;4993712;28;20132;-80
2021/06/01 00:57:57;;;;;;;11.32;8.45;;;17.50;83.00;;;;;;4993396;28;20129;-80
2021/06/01 01:02:56;;;;;;;12.00;8.40;;;17.40;83.10;;;;;;5008206;28;20129;-80
2021/06/01 01:05:25;;;;;;;11.15;8.43;;;17.40;83.00;;;;;;5013036;28;20105;-80
2021/06/01 01:11:36;;;;;;;12.27;8.43;;;17.30;83.30;;;;;;5009087;28;20054;-80
2021/06/01 01:14:17;;;;;;;11.82;8.00;;;17.20;82.70;;;;;;4999743;28;20118;-80
2021/06/01 01:17:07;;;;;;;11.70;8.70;;;17.10;83.00;;;;;;4993736;28;20070;-79
2021/06/01 01:19:49;;;;;;;10.45;8.52;;;17.10;82.60;;;;;;4993398;28;20152;-80
2021/06/01 01:22:17;;;;;;;10.55;8.23;;;17.00;83.20;;;;;;4993330;28;20050;-80
2021/06/01 01:25:06;;;;;;;11.63;8.52;;;17.00;83.50;;;;;;4993139;28;20482;-80
2021/06/01 01:28:06;;;;;;;10.88;8.30;;;16.90;83.40;;;;;;4992793;28;20051;-79
2021/06/01 01:30:47;;;;;;;11.20;8.45;;;16.90;83.10;;;;;;4993331;28;20417;-79
2021/06/01 01:33:30;;;;;;;12.23;8.25;;;16.80;83.10;;;;;;4993195;28;20054;-79
2021/06/01 01:36:00;;;;;;;10.90;8.02;;;16.80;83.30;;;;;;4992339;28;20054;-79
2021/06/01 01:38:27;;;;;;;11.00;8.13;;;16.70;83.90;;;;;;4992881;28;20105;-80
2021/06/01 01:40:58;;;;;;;12.90;8.63;;;16.70;84.20;;;;;;4992412;28;20097;-80
2021/06/01 01:43:27;;;;;;;11.07;8.35;;;16.70;83.90;;;;;;4993061;28;20058;-80
2021/06/01 01:46:05;;;;;;;11.38;8.45;;;16.60;84.00;;;;;;4992831;28;20061;-80
2021/06/01 01:51:39;;;;;;;11.15;8.40;;;16.50;84.50;;;;;;4952028;28;20505;-80
2021/06/01 01:54:10;;;;;;;14.70;8.38;;;16.40;84.50;;;;;;4951812;29;20047;-80
2021/06/01 01:56:39;;;;;;;10.35;8.02;;;16.40;84.60;;;;;;4972482;28;20046;-80
2021/06/01 01:59:09;;;;;;;11.02;8.32;;;16.40;84.40;;;;;;4993561;28;20073;-80
2021/06/01 02:01:37;;;;;;;11.57;8.20;;;16.30;84.40;;;;;;4992655;28;20058;-79
2021/06/01 02:04:12;;;;;;;13.15;9.02;;;16.20;84.00;;;;;;5109856;23;20524;-80
2021/06/01 02:06:46;;;;;;;9.27;7.75;;;16.30;84.10;;;;;;4993134;28;20136;-80
2021/06/01 02:09:12;;;;;;;11.55;7.85;;;16.20;84.00;;;;;;4992350;28;20042;-80
2021/06/01 02:11:38;;;;;;;12.57;8.57;;;16.10;84.30;;;;;;5004038;28;20505;-80
2021/06/01 02:14:05;;;;;;;10.05;7.95;;;16.10;84.40;;;;;;5012233;28;20046;-80
2021/06/01 02:16:39;;;;;;;11.20;8.48;;;16.00;84.60;;;;;;5012225;28;20045;-80
2021/06/01 02:19:06;;;;;;;11.13;8.65;;;16.00;84.20;;;;;;5011064;28;20054;-80
2021/06/01 02:24:21;;;;;;;14.63;8.60;;;15.90;84.10;;;;;;5013733;28;20164;-80
2021/06/01 02:26:55;;;;;;;12.10;8.13;;;15.80;84.30;;;;;;5016165;28;20054;-80
2021/06/01 02:30:02;;;;;;;11.90;8.15;;;15.80;84.30;;;;;;5016439;28;20053;-80
2021/06/01 02:32:50;;;;;;;12.30;8.23;;;15.70;83.20;;;;;;4996042;28;20158;-81
2021/06/01 02:35:31;;;;;;;11.73;8.88;;;15.70;84.00;;;;;;4996184;28;20061;-81
2021/06/01 02:38:00;;;;;;;11.85;8.55;;;15.60;85.10;;;;;;4995209;28;20061;-80
2021/06/01 02:40:27;;;;;;;12.82;9.20;;;15.60;85.40;;;;;;4996273;28;20137;-81
2021/06/01 02:42:56;;;;;;;12.52;8.57;;;15.60;85.20;;;;;;4996370;28;20046;-81
2021/06/01 02:45:24;;;;;;;11.35;8.40;;;15.60;85.30;;;;;;5014453;28;20520;-81
2021/06/01 02:47:52;;;;;;;11.77;8.88;;;15.60;85.60;;;;;;5015576;28;20052;-81
2021/06/01 02:50:18;;;;;;;13.60;9.50;;;15.50;85.50;;;;;;5015271;28;20053;-81
2021/06/01 02:52:45;;;;;;;10.60;8.20;;;15.50;86.00;;;;;;5014496;28;20087;-81
2021/06/01 02:55:14;;;;;;;12.55;9.30;;;15.50;85.90;;;;;;5015246;28;20057;-81
2021/06/01 02:57:40;;;;;;;14.05;8.82;;;15.40;86.00;;;;;;5015096;28;20125;-80
2021/06/01 03:00:09;;;;;;;11.07;8.55;;;15.40;86.10;;;;;;5014400;28;20049;-80
2021/06/01 03:02:35;;;;;;;12.57;8.68;;;15.40;86.30;;;;;;5015375;28;20413;-80
2021/06/01 03:05:01;;;;;;;14.60;9.45;;;15.30;86.20;;;;;;5015019;28;20053;-80
2021/06/01 03:07:27;;;;;;;11.98;9.18;;;15.30;86.00;;;;;;5014475;28;20044;-79
2021/06/01 03:09:53;;;;;;;12.55;9.02;;;15.30;86.00;;;;;;5014578;28;20042;-80
2021/06/01 03:12:38;;;;;;;14.00;9.07;;;15.30;86.00;;;;;;5014179;28;20489;-80
2021/06/01 03:15:06;;;;;;;11.95;9.18;;;15.20;85.80;;;;;;5014478;28;20588;-80
2021/06/01 03:17:32;;;;;;;11.57;8.30;;;15.20;85.90;;;;;;5015005;28;20049;-81
2021/06/01 03:19:57;;;;;;;13.90;9.98;;;15.10;85.70;;;;;;5013951;28;20058;-81
2021/06/01 03:22:23;;;;;;;11.75;8.68;;;15.10;85.80;;;;;;5014725;28;20490;-81
2021/06/01 03:24:49;;;;;;;11.63;9.43;;;15.10;85.80;;;;;;5012014;28;20042;-81
2021/06/01 03:27:14;;;;;;;12.45;9.75;;;15.00;85.60;;;;;;5013380;28;20556;-81
2021/06/01 03:29:40;;;;;;;12.27;9.35;;;15.00;85.60;;;;;;5013055;28;20046;-81
2021/06/01 03:32:06;;;;;;;14.15;9.68;;;14.90;85.70;;;;;;5014451;28;20054;-81
2021/06/01 03:34:33;;;;;;;11.07;9.23;;;14.90;85.80;;;;;;5013542;28;20516;-81
2021/06/01 03:36:59;;;;;;;12.95;9.23;;;14.90;86.00;;;;;;5014239;28;20529;-81
2021/06/01 03:39:27;;;;;;;11.15;9.23;;;14.80;86.10;;;;;;5013991;28;20054;-80
2021/06/01 03:41:54;;;;;;;13.20;9.50;;;14.80;85.70;;;;;;5013541;28;20076;-80
2021/06/01 03:44:19;;;;;;;11.45;9.32;;;14.80;85.90;;;;;;5013971;28;20057;-80
2021/06/01 03:46:45;;;;;;;11.27;9.02;;;14.70;85.60;;;;;;5014720;28;20046;-80
2021/06/01 03:49:11;;;;;;;12.20;9.40;;;14.70;85.90;;;;;;5013226;28;20426;-80
2021/06/01 03:51:37;;;;;;;13.63;9.38;;;14.60;86.40;;;;;;5014515;28;20544;-80
2021/06/01 03:54:03;;;;;;;11.43;9.18;;;14.70;86.70;;;;;;5013537;28;20112;-80
2021/06/01 03:56:29;;;;;;;12.55;9.35;;;14.60;86.70;;;;;;5013523;28;20053;-80
2021/06/01 03:58:55;;;;;;;14.05;9.93;;;14.60;86.90;;;;;;5014073;28;20054;-80
2021/06/01 04:01:20;;;;;;;14.48;9.93;;;14.60;87.10;;;;;;5011673;28;20492;-80
2021/06/01 04:03:46;;;;;;;14.13;9.35;;;14.50;87.10;;;;;;5011495;28;20137;-80
2021/06/01 04:06:12;;;;;;;13.25;9.43;;;14.50;87.20;;;;;;5011222;28;20416;-80
2021/06/01 04:08:39;;;;;;;11.43;9.43;;;14.50;87.40;;;;;;5011333;28;20049;-81
2021/06/01 04:11:05;;;;;;;12.52;9.57;;;14.50;87.10;;;;;;5012824;28;20073;-81
2021/06/01 04:13:31;;;;;;;13.77;9.70;;;14.40;87.10;;;;;;5013647;28;20052;-81
2021/06/01 04:15:57;;;;;;;13.40;9.50;;;14.40;87.30;;;;;;5012588;28;20530;-81
2021/06/01 04:18:23;;;;;;;12.40;9.57;;;14.40;87.20;;;;;;5013832;28;20132;-81
2021/06/01 04:20:48;;;;;;;13.10;9.85;;;14.40;87.00;;;;;;5013617;28;20408;-81
2021/06/01 04:23:14;;;;;;;11.80;9.48;;;14.40;87.30;;;;;;5012496;28;20050;-80
2021/06/01 04:25:40;;;;;;;13.60;9.52;;;14.30;87.30;;;;;;5013835;28;20061;-81
2021/06/01 04:28:06;;;;;;;13.27;9.73;;;14.30;87.40;;;;;;5013049;28;20057;-81
2021/06/01 04:30:32;;;;;;;12.57;9.55;;;14.30;87.50;;;;;;5012958;28;20405;-81
2021/06/01 04:32:58;;;;;;;13.98;9.35;;;14.30;87.40;;;;;;5013511;28;20137;-81
2021/06/01 04:35:24;;;;;;;14.27;10.05;;;14.30;87.30;;;;;;5013545;28;20204;-81
2021/06/01 04:37:49;;;;;;;13.80;9.23;;;14.20;86.70;;;;;;5011468;28;20038;-81
2021/06/01 04:40:15;;;;;;;13.23;10.18;;;14.20;86.70;;;;;;5012705;28;20056;-80
2021/06/01 04:42:42;;;;;;;15.85;9.73;;;14.20;86.70;;;;;;5013281;28;20089;-81
2021/06/01 04:45:14;;;;;;;14.65;10.13;;;14.20;86.80;;;;;;5012182;28;20211;-81
2021/06/01 04:47:40;;;;;;;15.40;10.43;;;14.20;86.50;;;;;;5013266;28;20146;-81
2021/06/01 04:50:09;;;;;;;13.00;10.05;;;14.10;86.60;;;;;;5012966;28;20053;-81
2021/06/01 04:52:35;;;;;;;15.38;10.15;;;14.10;86.50;;;;;;5012601;28;20041;-81
2021/06/01 04:55:01;;;;;;;13.30;10.38;;;14.10;86.70;;;;;;5013051;28;20148;-81
2021/06/01 04:57:26;;;;;;;11.43;9.07;;;14.10;87.00;;;;;;5012955;28;20049;-81
2021/06/01 04:59:55;;;;;;;14.25;9.57;;;14.10;86.30;;;;;;5011801;28;20188;-81
2021/06/01 05:02:21;;;;;;;14.23;10.27;;;14.10;86.10;;;;;;5012476;28;20045;-81
2021/06/01 05:04:46;;;;;;;14.27;9.57;;;14.10;86.90;;;;;;5012380;28;20092;-81
2021/06/01 05:07:12;;;;;;;13.60;10.18;;;14.00;86.50;;;;;;5012840;28;20081;-81
2021/06/01 05:09:38;;;;;;;13.63;9.93;;;14.00;86.70;;;;;;5013134;28;20054;-81
2021/06/01 05:12:05;;;;;;;12.20;9.82;;;14.00;87.00;;;;;;5011854;28;20065;-81
2021/06/01 05:14:31;;;;;;;13.52;9.85;;;14.10;87.70;;;;;;5013302;28;20073;-81
2021/06/01 05:16:57;;;;;;;14.00;10.05;;;14.10;87.50;;;;;;5012510;28;20512;-81
2021/06/01 05:19:23;;;;;;;16.45;10.00;;;14.10;87.00;;;;;;5011461;28;20516;-81
2021/06/01 05:21:48;;;;;;;11.60;9.45;;;14.10;87.10;;;;;;5011815;28;20500;-81
2021/06/01 05:24:14;;;;;;;12.70;9.82;;;14.10;87.00;;;;;;5003274;28;20046;-80
2021/06/01 05:26:41;;;;;;;12.10;9.32;;;14.10;87.10;;;;;;5012087;28;20053;-81
2021/06/01 05:29:07;;;;;;;12.27;9.88;;;14.10;86.60;;;;;;5012796;28;20046;-81
2021/06/01 05:31:45;;;;;;;12.68;9.32;;;14.10;87.10;;;;;;5012594;28;20050;-81
2021/06/01 05:34:13;;;;;;;13.82;9.10;;;14.20;87.50;;;;;;5011724;28;20129;-81
2021/06/01 05:36:40;;;;;;;13.40;9.10;;;14.10;87.20;;;;;;5012647;28;20409;-81
2021/06/01 05:39:11;;;;;;;12.07;9.43;;;14.20;87.10;;;;;;5012147;28;20539;-86
2021/06/01 05:41:40;;;;;;;14.15;9.88;;;14.20;87.50;;;;;;5012216;28;20050;-85
2021/06/01 05:44:06;;;;;;;12.50;9.35;;;14.20;87.20;;;;;;5012742;28;20078;-86
2021/06/01 05:46:33;;;;;;;11.57;8.70;;;14.20;87.30;;;;;;5012716;28;20084;-85
2021/06/01 05:49:02;;;;;;;13.80;9.63;;;14.30;86.50;;;;;;5011735;28;20069;-86
2021/06/01 05:51:34;;;;;;;12.45;8.70;;;14.30;86.90;;;;;;5013256;28;20053;-86
2021/06/01 05:54:04;;;;;;;11.75;9.00;;;14.30;86.70;;;;;;5011346;28;20069;-80
2021/06/01 05:56:31;;;;;;;13.65;8.73;;;14.30;87.10;;;;;;5012980;28;20054;-80
2021/06/01 05:58:59;;;;;;;11.50;8.23;;;14.40;86.60;;;;;;5014624;28;20049;-79
2021/06/01 06:01:24;;;;;;;10.18;8.23;;;14.40;86.90;;;;;;5013683;28;20070;-79
2021/06/01 06:03:53;;;;;;;13.38;8.70;;;14.40;86.20;;;;;;5014744;28;20121;-79
2021/06/01 06:06:20;;;;;;;11.27;8.93;;;14.40;86.10;;;;;;5014823;28;20049;-79
2021/06/01 06:08:46;;;;;;;11.85;8.63;;;14.40;85.70;;;;;;5014640;28;20493;-79
2021/06/01 06:11:12;;;;;;;11.00;8.38;;;14.50;85.90;;;;;;4986719;28;20042;-79
2021/06/01 06:13:38;;;;;;;13.65;8.20;;;14.50;85.60;;;;;;5014702;28;20049;-79
2021/06/01 06:16:04;;;;;;;11.63;8.50;;;14.60;85.70;;;;;;4998191;28;20394;-79
2021/06/01 06:18:42;;;;;;;11.10;8.35;;;14.60;85.50;;;;;;5015436;28;20060;-79
2021/06/01 06:21:07;;;;;;;10.45;7.90;;;14.60;86.40;;;;;;5004757;28;20100;-79
2021/06/01 06:23:38;;;;;;;11.65;7.85;;;14.70;86.90;;;;;;5009130;28;20102;-79
2021/06/01 06:26:03;;;;;;;11.48;7.50;;;14.70;86.30;;;;;;4998859;28;20050;-79
2021/06/01 06:28:31;;;;;;;9.60;7.68;;;14.80;85.70;;;;;;5010017;28;20054;-79
2021/06/01 06:30:57;;;;;;;12.10;7.20;;;14.90;86.50;;;;;;5003746;28;20046;-79
2021/06/01 06:33:23;;;;;;;10.50;7.55;;;15.10;86.20;;;;;;5003064;28;20054;-78
2021/06/01 06:35:50;;;;;;;11.65;8.27;;;15.20;86.50;;;;;;5005719;28;20060;-79
2021/06/01 06:38:18;;;;;;;11.95;7.57;;;15.30;87.20;;;;;;4995152;28;20054;-78
2021/06/01 06:40:49;;;;;;;12.88;7.78;;;15.50;86.60;;;;;;5010907;28;20133;-79
2021/06/01 06:43:15;;;;;;;11.10;7.70;;;15.50;86.20;;;;;;5003213;28;20050;-79
2021/06/01 06:45:41;;;;;;;9.32;6.78;;;15.70;86.10;;;;;;5000018;28;20073;-79
2021/06/01 06:48:09;;;;;;;11.13;7.20;;;15.80;85.40;;;;;;5011464;28;20120;-79
2021/06/01 06:50:36;;;;;;;12.23;7.03;;;15.90;84.20;;;;;;5000293;28;20924;-79
2021/06/01 06:53:06;;;;;;;11.63;6.68;;;16.10;84.20;;;;;;5013169;28;20041;-79
2021/06/01 06:55:33;;;;;;;9.30;6.60;;;16.20;84.40;;;;;;5001186;28;20053;-78
2021/06/01 06:57:59;;;;;;;10.82;6.80;;;16.30;83.60;;;;;;5010430;28;20050;-78
2021/06/01 07:00:25;;;;;;;9.52;5.82;;;16.50;83.70;;;;;;5006427;28;20045;-78
2021/06/01 07:02:53;;;;;;;9.15;6.38;;;16.50;81.10;;;;;;5003111;28;20168;-78
2021/06/01 07:05:20;;;;;;;10.68;5.82;;;16.70;82.00;;;;;;5006486;28;20510;-79
2021/06/01 07:07:51;;;;;;;8.45;6.20;;;16.80;81.20;;;;;;5001938;28;20054;-79
2021/06/01 07:10:16;;;;;;;8.55;5.47;;;17.00;81.70;;;;;;4998002;28;20050;-78
2021/06/01 07:12:43;;;;;;;9.15;5.72;;;17.10;80.40;;;;;;5006803;28;20089;-78
2021/06/01 07:15:41;;;;;;;7.78;5.70;;;17.20;80.10;;;;;;5006848;28;20478;-78
2021/06/01 07:18:07;;;;;;;11.45;5.63;;;17.40;80.80;;;;;;5011384;28;20513;-79
2021/06/01 07:20:35;;;;;;;8.73;5.03;;;17.60;79.70;;;;;;5007145;28;20046;-79
2021/06/01 07:23:02;;;;;;;7.18;4.43;;;17.70;78.60;;;;;;5010349;28;20499;-79
2021/06/01 07:25:33;;;;;;;7.18;5.00;;;17.80;76.40;;;;;;5013778;28;20057;-79
2021/06/01 07:28:19;;;;;;;8.75;4.72;;;17.90;75.80;;;;;;5011568;28;20111;-79
2021/06/01 07:31:06;;;;;;;7.38;5.25;;;18.10;76.80;;;;;;5004861;28;20413;-79
2021/06/01 07:33:34;;;;;;;8.95;4.65;;;18.20;77.70;;;;;;5008892;28;20046;-79
2021/06/01 07:36:00;;;;;;;7.22;5.00;;;18.30;76.40;;;;;;5012515;28;20136;-78
2021/06/01 07:38:28;;;;;;;7.57;4.75;;;18.40;77.10;;;;;;4999592;28;20050;-79
2021/06/01 07:40:54;;;;;;;7.82;4.10;;;18.50;78.00;;;;;;5010759;28;20058;-78
2021/06/01 07:43:21;;;;;;;8.50;4.78;;;18.60;77.40;;;;;;5012991;28;20042;-78
2021/06/01 07:45:47;;;;;;;6.95;4.97;;;18.70;76.70;;;;;;5010093;28;20137;-78
2021/06/01 07:48:13;;;;;;;6.57;4.45;;;18.80;76.80;;;;;;5009654;28;20109;-78
2021/06/01 07:50:50;;;;;;;7.03;4.25;;;18.90;76.30;;;;;;5002288;28;20132;-79
2021/06/01 07:53:17;;;;;;;7.00;3.55;;;19.00;75.90;;;;;;5013486;28;20124;-78
2021/06/01 07:55:43;;;;;;;6.93;3.35;;;19.10;75.60;;;;;;5012324;28;20045;-79
2021/06/01 07:58:09;;;;;;;5.55;3.25;;;19.20;73.90;;;;;;4996776;28;20447;-79
2021/06/01 08:00:35;;;;;;;6.80;2.92;;;19.30;73.30;;;;;;5007175;28;20060;-78
2021/06/01 08:03:06;;;;;;;7.32;3.78;;;19.40;69.80;;;;;;5008619;28;20410;-78
2021/06/01 08:05:32;;;;;;;5.70;3.08;;;19.50;72.20;;;;;;5007178;28;20464;-78
2021/06/01 08:07:58;;;;;;;7.28;2.83;;;19.60;72.90;;;;;;5010786;28;20085;-79
2021/06/01 08:10:23;;;;;;;6.05;3.17;;;19.70;72.00;;;;;;5008078;28;20053;-79
2021/06/01 08:12:53;;;;;;;7.25;3.60;;;19.80;72.80;;;;;;5006983;28;20413;-79
2021/06/01 08:15:21;;;;;;;8.50;2.60;;;19.90;73.20;;;;;;4997552;28;20074;-80
2021/06/01 08:17:50;;;;;;;5.68;2.80;;;20.00;71.10;;;;;;5006512;28;20052;-80
2021/06/01 08:20:26;;;;;;;4.93;2.60;;;20.00;71.50;;;;;;5003061;28;20505;-80
2021/06/01 08:22:52;;;;;;;6.07;3.17;;;20.10;68.70;;;;;;4997653;28;20054;-79
2021/06/01 08:25:18;;;;;;;6.13;2.97;;;20.30;70.10;;;;;;4984992;28;20053;-79
2021/06/01 08:27:44;;;;;;;5.18;2.92;;;20.30;72.10;;;;;;5002111;28;20042;-79
2021/06/01 08:30:11;;;;;;;6.10;2.55;;;20.40;73.00;;;;;;5004879;28;20081;-79
2021/06/01 08:32:37;;;;;;;4.10;2.30;;;20.50;72.10;;;;;;5002948;28;20046;-79
2021/06/01 08:35:05;;;;;;;5.63;2.53;;;20.60;68.80;;;;;;5008875;28;20076;-78
2021/06/01 08:37:31;;;;;;;4.97;2.80;;;20.70;67.90;;;;;;4998386;28;20100;-79
2021/06/01 08:39:56;;;;;;;5.72;2.60;;;20.70;69.30;;;;;;4997665;28;20401;-79
2021/06/01 08:42:23;;;;;;;6.65;2.70;;;20.90;71.40;;;;;;5013478;28;20540;-79
2021/06/01 08:44:50;;;;;;;6.28;2.42;;;20.90;71.90;;;;;;5011977;28;20049;-78
2021/06/01 08:47:19;;;;;;;5.32;2.60;;;21.00;68.70;;;;;;5009026;28;20100;-79
2021/06/01 08:49:47;;;;;;;4.60;2.00;;;21.10;69.30;;;;;;5001215;28;20050;-79
2021/06/01 08:52:13;;;;;;;6.43;2.45;;;21.20;65.80;;;;;;5010010;28;20049;-79
2021/06/01 08:54:44;;;;;;;4.22;2.10;;;21.30;66.30;;;;;;5009569;28;20050;-79
2021/06/01 08:57:10;;;;;;;5.70;2.30;;;21.40;68.00;;;;;;4998811;28;20096;-79
2021/06/01 08:59:36;;;;;;;4.78;2.03;;;21.40;69.50;;;;;;5009197;28;20707;-79
2021/06/01 09:02:03;;;;;;;4.32;2.45;;;21.50;69.60;;;;;;4998007;28;20132;-79
2021/06/01 09:05:07;;;;;;;7.15;2.08;;;21.60;71.30;;;;;;5003272;28;20046;-79
2021/06/01 09:07:49;;;;;;;5.38;2.08;;;21.70;68.90;;;;;;4973172;28;20055;-78
2021/06/01 09:21:15;;;;;;;4.43;2.10;;;22.10;66.70;;;;;;4996624;28;20074;-78
2021/06/01 09:23:59;;;;;;;4.63;1.77;;;22.20;66.70;;;;;;5008926;28;20512;-78
2021/06/01 09:29:48;;;;;;;4.28;1.90;;;22.40;69.40;;;;;;5009940;28;20053;-79
2021/06/01 09:32:16;;;;;;;5.03;1.87;;;22.40;62.70;;;;;;5011913;28;20100;-79
2021/06/01 09:34:43;;;;;;;6.93;1.92;;;22.50;60.70;;;;;;5009324;28;20104;-79
2021/06/01 09:37:15;;;;;;;4.43;1.85;;;22.60;62.20;;;;;;5015648;28;20492;-80
2021/06/01 09:39:42;;;;;;;5.10;1.93;;;22.70;64.60;;;;;;5004600;28;20485;-79
2021/06/01 09:42:27;;;;;;;5.38;1.90;;;22.70;66.20;;;;;;5009543;28;20061;-79
2021/06/01 09:45:20;;;;;;;4.22;1.70;;;22.80;63.80;;;;;;5008355;28;20104;-80
2021/06/01 09:47:51;;;;;;;4.68;1.83;;;22.90;67.50;;;;;;5012636;28;20062;-79
2021/06/01 09:53:10;;;;;;;4.03;1.50;;;23.10;66.80;;;;;;5009840;28;20054;-80
2021/06/01 09:55:47;;;;;;;4.93;1.63;;;23.20;67.30;;;;;;5014410;28;20440;-79
2021/06/01 09:58:16;;;;;;;4.97;1.73;;;23.20;68.30;;;;;;5002889;28;20045;-79
2021/06/01 10:00:44;;;;;;;6.57;1.63;;;23.30;61.80;;;;;;5004718;28;20081;-79
2021/06/01 10:03:18;;;;;;;3.72;1.83;;;23.30;59.30;;;;;;5009748;28;20078;-79
2021/06/01 10:05:47;;;;;;;5.28;1.88;;;23.50;62.50;;;;;;5009433;28;20136;-81
2021/06/01 10:08:14;;;;;;;3.55;1.70;;;23.50;62.20;;;;;;5001871;28;20405;-79
2021/06/01 10:10:49;;;;;;;5.43;1.80;;;23.60;63.50;;;;;;5013858;28;20445;-79
2021/06/01 10:13:15;;;;;;;4.28;1.80;;;23.60;55.00;;;;;;5015536;28;20052;-80
2021/06/01 10:15:40;;;;;;;4.55;1.90;;;23.60;59.00;;;;;;4999889;28;20401;-79
2021/06/01 10:18:09;;;;;;;4.10;1.67;;;23.70;62.70;;;;;;5005820;28;20042;-79
2021/06/01 10:20:37;;;;;;;5.07;1.60;;;23.80;65.40;;;;;;5006216;28;20074;-80
2021/06/01 10:23:04;;;;;;;3.67;1.63;;;23.80;65.20;;;;;;5007806;28;20057;-80
2021/06/01 10:25:30;;;;;;;5.53;1.80;;;23.90;63.00;;;;;;5014798;28;20057;-79
2021/06/01 10:28:01;;;;;;;5.90;1.80;;;24.00;60.20;;;;;;5008622;28;20381;-80
2021/06/01 10:30:31;;;;;;;3.03;1.45;;;24.00;61.70;;;;;;5013618;28;20480;-80
2021/06/01 10:33:01;;;;;;;4.53;1.77;;;24.10;58.70;;;;;;5002626;28;20042;-80
2021/06/01 10:35:34;;;;;;;3.65;1.50;;;24.10;58.00;;;;;;5010157;28;20425;-80
2021/06/01 10:51:56;;;;;;;4.07;1.70;;;24.50;56.20;;;;;;5010693;28;20073;-80
2021/06/01 10:54:45;;;;;;;3.42;1.60;;;24.50;57.70;;;;;;5002982;28;20087;-88
2021/06/01 10:57:16;;;;;;;4.10;1.80;;;24.60;59.80;;;;;;4999594;28;20307;-88
2021/06/01 10:59:50;;;;;;;4.05;1.55;;;24.60;59.90;;;;;;5011152;28;20046;-88
2021/06/01 11:02:16;;;;;;;4.32;1.50;;;24.70;60.20;;;;;;5000675;28;20548;-88
2021/06/01 11:05:14;;;;;;;4.03;1.75;;;24.70;60.80;;;;;;5000728;28;20058;-81
2021/06/01 11:07:52;;;;;;;5.05;1.40;;;24.80;61.80;;;;;;4999295;28;20050;-82
2021/06/01 11:10:44;;;;;;;5.13;1.70;;;24.90;61.50;;;;;;5006014;28;20066;-81
2021/06/01 11:13:17;;;;;;;4.20;1.57;;;24.90;52.80;;;;;;4994192;28;20074;-81
2021/06/01 11:15:53;;;;;;;4.47;1.50;;;24.90;53.70;;;;;;4997148;28;20293;-81
2021/06/01 11:21:06;;;;;;;3.95;1.50;;;24.90;57.30;;;;;;5007571;28;20145;-81
2021/06/01 11:23:42;;;;;;;5.13;1.50;;;25.00;58.30;;;;;;4998580;28;20100;-81
2021/06/01 11:35:07;;;;;;;3.47;1.60;;;25.30;58.50;;;;;;4991811;28;20189;-81
2021/06/01 11:37:39;;;;;;;5.03;1.70;;;25.30;58.40;;;;;;4995355;28;20050;-81
2021/06/01 11:40:50;;;;;;;3.30;1.60;;;25.40;55.80;;;;;;5007761;28;20062;-81
2021/06/01 11:43:11;;;;;;;5.80;1.80;;;25.40;53.80;;;;;;5005481;28;20052;-81
2021/06/01 11:51:19;;;;;;;4.85;1.50;;;25.60;63.00;;;;;;5001999;28;20134;-82
2021/06/01 11:54:21;;;;;;;3.63;1.48;;;25.70;58.40;;;;;;5010518;28;20077;-81
2021/06/01 12:02:49;;;;;;;4.13;1.65;;;25.80;56.70;;;;;;4994614;28;20050;-82
2021/06/01 12:18:55;;;;;;;4.80;1.77;;;26.30;57.20;;;;;;5004866;28;20050;-84
2021/06/01 12:21:34;;;;;;;3.90;1.70;;;26.30;54.20;;;;;;4996823;28;20413;-85
2021/06/01 12:24:12;;;;;;;3.83;1.80;;;26.30;52.60;;;;;;5007058;28;20042;-86
2021/06/01 12:32:14;;;;;;;3.78;1.65;;;26.20;51.20;;;;;;5006559;28;20046;-86
2021/06/01 12:46:02;;;;;;;4.60;1.95;;;26.10;49.20;;;;;;5004199;28;20080;-85
2021/06/01 13:19:48;;;;;;;3.80;1.80;;;26.20;50.70;;;;;;5011489;28;20444;-82
2021/06/01 13:38:59;;;;;;;5.13;1.98;;;26.20;49.80;;;;;;5003615;28;20046;-87
2021/06/01 13:47:04;;;;;;;5.85;2.45;;;26.30;49.10;;;;;;5003818;28;20134;-87
2021/06/01 13:49:42;;;;;;;4.75;2.10;;;26.30;50.00;;;;;;5010142;28;20495;-88
2021/06/01 13:52:20;;;;;;;4.18;2.10;;;26.40;49.50;;;;;;5011925;28;20046;-87
2021/06/01 14:00:31;;;;;;;4.43;2.20;;;26.40;48.00;;;;;;5001895;28;20070;-89
2021/06/01 14:09:29;;;;;;;7.57;2.40;;;26.40;47.90;;;;;;4993195;28;20050;-88
2021/06/01 15:07:52;;;;;;;7.38;2.88;;;26.80;51.90;;;;;;5014330;28;20050;-93
2021/06/01 17:07:05;;;;;;;5.60;2.60;;;27.50;56.90;;;;;;4990737;28;20069;-84
2021/06/01 17:12:30;;;;;;;5.90;2.50;;;27.50;59.70;;;;;;4991564;28;20050;-84
2021/06/01 17:14:56;;;;;;;6.05;2.50;;;27.60;58.80;;;;;;4992888;28;20453;-85
2021/06/01 17:36:53;;;;;;;4.72;2.47;;;27.70;60.60;;;;;;5031670;28;20053;-83
2021/06/01 17:39:19;;;;;;;5.47;2.60;;;27.80;60.40;;;;;;5032399;28;20065;-83
2021/06/01 17:41:48;;;;;;;5.38;2.80;;;27.80;61.40;;;;;;5032691;28;20091;-84
2021/06/01 17:44:16;;;;;;;6.43;3.13;;;27.90;62.30;;;;;;5032611;28;20124;-84
2021/06/01 17:46:44;;;;;;;7.38;2.80;;;27.90;63.10;;;;;;5031773;28;20057;-84
2021/06/01 17:49:12;;;;;;;5.47;2.80;;;27.90;63.20;;;;;;5029813;28;20042;-84
2021/06/01 17:51:41;;;;;;;6.20;2.75;;;27.90;63.90;;;;;;5031711;28;20503;-84
2021/06/01 17:54:07;;;;;;;4.53;2.55;;;27.90;64.30;;;;;;5035909;28;20128;-84
2021/06/01 17:56:35;;;;;;;5.05;2.90;;;28.00;64.90;;;;;;5037028;28;20080;-82
2021/06/01 17:59:01;;;;;;;6.20;3.20;;;28.00;64.90;;;;;;5036220;28;20398;-83
2021/06/01 18:01:30;;;;;;;6.63;3.15;;;28.00;65.20;;;;;;5037236;28;20056;-83
2021/06/01 18:04:04;;;;;;;5.78;3.30;;;28.00;63.90;;;;;;5019306;28;20205;-85
2021/06/01 18:06:37;;;;;;;7.13;3.35;;;28.00;65.00;;;;;;5036834;28;20400;-83
2021/06/01 18:12:32;;;;;;;6.10;2.90;;;28.00;65.90;;;;;;5037341;28;20060;-83
2021/06/01 18:35:34;;;;;;;;;;;27.90;65.90;;;;;;5035142;28;20060;-82
2021/06/01 19:24:29;;;;;;;6.55;3.60;;;27.10;68.40;;;;;;5032848;28;20079;-83
2021/06/01 19:42:22;;;;;;;6.05;3.53;;;27.00;69.40;;;;;;5035482;28;20095;-83
2021/06/01 19:52:10;;;;;;;6.30;3.47;;;26.40;70.70;;;;;;5033395;28;20052;-85
2021/06/01 19:54:37;;;;;;;6.57;3.67;;;26.30;71.30;;;;;;5033541;28;20049;-84
2021/06/01 19:57:04;;;;;;;8.02;3.60;;;26.30;71.50;;;;;;5034169;28;20052;-84
2021/06/01 19:59:32;;;;;;;6.18;4.03;;;26.20;72.00;;;;;;5034628;28;20425;-84
2021/06/01 20:01:58;;;;;;;6.07;3.72;;;26.20;71.40;;;;;;5034750;28;20055;-83
2021/06/01 20:04:27;;;;;;;9.50;4.03;;;26.10;71.70;;;;;;5033583;28;20053;-84
2021/06/01 20:06:53;;;;;;;7.03;3.90;;;26.00;71.60;;;;;;5032779;28;20046;-83
2021/06/01 20:09:19;;;;;;;7.13;4.10;;;26.00;72.00;;;;;;5032629;28;20095;-82
2021/06/01 20:11:47;;;;;;;7.18;3.83;;;25.90;72.20;;;;;;5033618;28;20120;-84
2021/06/01 20:14:13;;;;;;;6.70;3.80;;;25.80;72.20;;;;;;5014237;28;20056;-84
2021/06/01 20:16:46;;;;;;;7.68;3.67;;;25.70;72.10;;;;;;5027103;28;20045;-93
2021/06/01 20:19:16;;;;;;;7.88;3.95;;;25.70;68.80;;;;;;5032854;28;20563;-84
2021/06/01 20:21:44;;;;;;;6.50;3.85;;;25.60;70.20;;;;;;5035955;28;20616;-85
2021/06/01 20:24:14;;;;;;;8.05;3.83;;;25.50;71.80;;;;;;5035497;28;20045;-83